Larache, Morocco
Current Conditions -  °F | °C
As of 2:00 AM on Saturday 29 Nov 2014 (Local Time) from GMTT Reporting Station
Broken Clouds Broken Clouds  
Wind Chill: 55°   Ceiling: 1600
Heat Index: 55°   Visibility: 5mi
Dew Point: 46°   Wind: 12mph
Humidity: 72%   Direction: 130°SE
Pressure: 29.18"   Gusts: NA
Location:  35.2°N, 6.16°W
Report Text: GMTT 290100Z 13010KT 8000 BKN016 FEW023CB 13/08 Q0988 TEMPOSHRA
Loading
Personal Weather Stations






























Interactive Weather Map New forecast layout! Learn more

10-Day Weather Forecast

Advertisements
Track Severe Weather on mobile